sensor_id;sensor_type;location;lat;lon;timestamp;P1;durP1;ratioP1;P2;durP2;ratioP2
2029;SDS011;1020;48.854;8.830;2023-05-21T00:02:21;19.47;;;17.87;;
2029;SDS011;1020;48.854;8.830;2023-05-21T00:04:48;20.00;;;18.10;;
2029;SDS011;1020;48.854;8.830;2023-05-21T00:07:15;18.47;;;16.83;;
2029;SDS011;1020;48.854;8.830;2023-05-21T00:09:44;18.83;;;17.23;;
2029;SDS011;1020;48.854;8.830;2023-05-21T00:12:10;20.93;;;19.03;;
2029;SDS011;1020;48.854;8.830;2023-05-21T00:14:37;19.83;;;18.10;;
2029;SDS011;1020;48.854;8.830;2023-05-21T00:17:04;21.90;;;19.57;;
2029;SDS011;1020;48.854;8.830;2023-05-21T00:19:31;19.87;;;18.07;;
2029;SDS011;1020;48.854;8.830;2023-05-21T00:21:57;19.27;;;17.47;;
2029;SDS011;1020;48.854;8.830;2023-05-21T00:24:26;21.97;;;19.90;;
2029;SDS011;1020;48.854;8.830;2023-05-21T00:26:54;21.00;;;19.07;;
2029;SDS011;1020;48.854;8.830;2023-05-21T00:29:21;20.80;;;18.80;;
2029;SDS011;1020;48.854;8.830;2023-05-21T00:31:48;20.87;;;18.93;;
2029;SDS011;1020;48.854;8.830;2023-05-21T00:34:16;21.47;;;19.30;;
2029;SDS011;1020;48.854;8.830;2023-05-21T00:36:43;20.47;;;18.67;;
2029;SDS011;1020;48.854;8.830;2023-05-21T00:39:10;21.77;;;19.70;;
2029;SDS011;1020;48.854;8.830;2023-05-21T00:41:37;22.03;;;19.80;;
2029;SDS011;1020;48.854;8.830;2023-05-21T00:44:12;21.03;;;19.03;;
2029;SDS011;1020;48.854;8.830;2023-05-21T00:47:13;20.50;;;18.60;;
2029;SDS011;1020;48.854;8.830;2023-05-21T00:49:47;21.33;;;19.43;;
2029;SDS011;1020;48.854;8.830;2023-05-21T00:52:22;23.20;;;21.00;;
2029;SDS011;1020;48.854;8.830;2023-05-21T00:55:06;21.27;;;19.37;;
2029;SDS011;1020;48.854;8.830;2023-05-21T00:57:34;21.27;;;19.20;;
2029;SDS011;1020;48.854;8.830;2023-05-21T01:00:04;23.50;;;21.20;;
2029;SDS011;1020;48.854;8.830;2023-05-21T01:02:33;23.53;;;21.33;;
2029;SDS011;1020;48.854;8.830;2023-05-21T01:05:01;20.80;;;19.00;;
2029;SDS011;1020;48.854;8.830;2023-05-21T01:07:29;22.40;;;20.37;;
2029;SDS011;1020;48.854;8.830;2023-05-21T01:09:59;22.00;;;20.00;;
2029;SDS011;1020;48.854;8.830;2023-05-21T01:12:27;22.20;;;20.07;;
2029;SDS011;1020;48.854;8.830;2023-05-21T01:14:55;23.93;;;21.60;;
2029;SDS011;1020;48.854;8.830;2023-05-21T01:17:24;22.00;;;20.20;;
2029;SDS011;1020;48.854;8.830;2023-05-21T01:19:52;21.60;;;19.60;;
2029;SDS011;1020;48.854;8.830;2023-05-21T01:22:20;21.23;;;19.13;;
2029;SDS011;1020;48.854;8.830;2023-05-21T01:24:50;21.77;;;19.87;;
2029;SDS011;1020;48.854;8.830;2023-05-21T01:27:19;19.93;;;18.07;;
2029;SDS011;1020;48.854;8.830;2023-05-21T01:29:46;23.57;;;21.37;;
2029;SDS011;1020;48.854;8.830;2023-05-21T01:32:15;22.40;;;20.43;;
2029;SDS011;1020;48.854;8.830;2023-05-21T01:34:49;22.47;;;20.10;;
2029;SDS011;1020;48.854;8.830;2023-05-21T01:37:22;21.23;;;19.13;;
2029;SDS011;1020;48.854;8.830;2023-05-21T01:40:02;23.00;;;20.80;;
2029;SDS011;1020;48.854;8.830;2023-05-21T01:42:35;23.60;;;21.20;;
2029;SDS011;1020;48.854;8.830;2023-05-21T01:45:07;24.00;;;21.77;;
2029;SDS011;1020;48.854;8.830;2023-05-21T01:47:35;23.50;;;21.20;;
2029;SDS011;1020;48.854;8.830;2023-05-21T01:50:03;22.40;;;20.23;;
2029;SDS011;1020;48.854;8.830;2023-05-21T01:52:31;23.33;;;20.90;;
2029;SDS011;1020;48.854;8.830;2023-05-21T01:54:58;24.70;;;22.20;;
2029;SDS011;1020;48.854;8.830;2023-05-21T01:57:26;24.13;;;21.73;;
2029;SDS011;1020;48.854;8.830;2023-05-21T01:59:53;22.70;;;20.60;;
2029;SDS011;1020;48.854;8.830;2023-05-21T02:02:21;21.53;;;19.43;;
2029;SDS011;1020;48.854;8.830;2023-05-21T02:04:48;25.03;;;22.67;;
2029;SDS011;1020;48.854;8.830;2023-05-21T02:07:15;22.20;;;20.07;;
2029;SDS011;1020;48.854;8.830;2023-05-21T02:09:42;22.23;;;20.00;;
2029;SDS011;1020;48.854;8.830;2023-05-21T02:12:09;22.87;;;20.70;;
2029;SDS011;1020;48.854;8.830;2023-05-21T02:14:37;22.23;;;20.00;;
2029;SDS011;1020;48.854;8.830;2023-05-21T02:17:04;22.37;;;20.27;;
2029;SDS011;1020;48.854;8.830;2023-05-21T02:19:32;22.87;;;20.77;;
2029;SDS011;1020;48.854;8.830;2023-05-21T02:21:59;22.83;;;20.73;;
2029;SDS011;1020;48.854;8.830;2023-05-21T02:24:25;22.23;;;20.13;;
2029;SDS011;1020;48.854;8.830;2023-05-21T02:26:53;21.10;;;19.30;;
2029;SDS011;1020;48.854;8.830;2023-05-21T02:29:20;21.87;;;19.97;;
2029;SDS011;1020;48.854;8.830;2023-05-21T02:31:48;23.43;;;21.17;;
2029;SDS011;1020;48.854;8.830;2023-05-21T02:34:15;23.00;;;20.90;;
2029;SDS011;1020;48.854;8.830;2023-05-21T02:36:44;22.70;;;20.60;;
2029;SDS011;1020;48.854;8.830;2023-05-21T02:39:12;22.73;;;20.63;;
2029;SDS011;1020;48.854;8.830;2023-05-21T02:41:39;22.70;;;20.70;;
2029;SDS011;1020;48.854;8.830;2023-05-21T02:44:06;22.40;;;20.30;;
2029;SDS011;1020;48.854;8.830;2023-05-21T02:46:32;23.43;;;21.27;;
2029;SDS011;1020;48.854;8.830;2023-05-21T02:49:00;23.17;;;20.80;;
2029;SDS011;1020;48.854;8.830;2023-05-21T02:51:27;25.87;;;23.23;;
2029;SDS011;1020;48.854;8.830;2023-05-21T02:53:54;26.27;;;23.87;;
2029;SDS011;1020;48.854;8.830;2023-05-21T02:56:21;23.83;;;21.73;;
2029;SDS011;1020;48.854;8.830;2023-05-21T02:58:49;26.50;;;24.10;;
2029;SDS011;1020;48.854;8.830;2023-05-21T03:01:17;25.93;;;23.57;;
2029;SDS011;1020;48.854;8.830;2023-05-21T03:03:43;23.07;;;20.73;;
2029;SDS011;1020;48.854;8.830;2023-05-21T03:06:12;26.17;;;23.70;;
2029;SDS011;1020;48.854;8.830;2023-05-21T03:08:40;24.50;;;22.20;;
2029;SDS011;1020;48.854;8.830;2023-05-21T03:11:07;23.80;;;21.50;;
2029;SDS011;1020;48.854;8.830;2023-05-21T03:13:33;24.50;;;22.20;;
2029;SDS011;1020;48.854;8.830;2023-05-21T03:16:00;24.33;;;21.73;;
2029;SDS011;1020;48.854;8.830;2023-05-21T03:18:27;24.37;;;21.97;;
2029;SDS011;1020;48.854;8.830;2023-05-21T03:20:54;25.10;;;22.70;;
2029;SDS011;1020;48.854;8.830;2023-05-21T03:23:25;24.73;;;22.33;;
2029;SDS011;1020;48.854;8.830;2023-05-21T03:25:52;25.20;;;22.90;;
2029;SDS011;1020;48.854;8.830;2023-05-21T03:28:18;28.03;;;25.43;;
2029;SDS011;1020;48.854;8.830;2023-05-21T03:30:45;26.97;;;24.23;;
2029;SDS011;1020;48.854;8.830;2023-05-21T03:33:13;26.83;;;24.37;;
2029;SDS011;1020;48.854;8.830;2023-05-21T03:35:40;23.33;;;21.07;;
2029;SDS011;1020;48.854;8.830;2023-05-21T03:38:07;25.70;;;23.20;;
2029;SDS011;1020;48.854;8.830;2023-05-21T03:40:35;26.60;;;24.00;;
2029;SDS011;1020;48.854;8.830;2023-05-21T03:43:02;26.20;;;23.60;;
2029;SDS011;1020;48.854;8.830;2023-05-21T03:45:29;28.43;;;25.50;;
2029;SDS011;1020;48.854;8.830;2023-05-21T03:47:56;28.13;;;25.20;;
2029;SDS011;1020;48.854;8.830;2023-05-21T03:50:22;26.33;;;23.90;;
2029;SDS011;1020;48.854;8.830;2023-05-21T03:52:49;26.77;;;24.17;;
2029;SDS011;1020;48.854;8.830;2023-05-21T03:55:16;24.93;;;22.40;;
2029;SDS011;1020;48.854;8.830;2023-05-21T03:57:44;28.23;;;25.20;;
2029;SDS011;1020;48.854;8.830;2023-05-21T04:00:11;24.90;;;22.57;;
2029;SDS011;1020;48.854;8.830;2023-05-21T04:02:38;24.43;;;22.00;;
2029;SDS011;1020;48.854;8.830;2023-05-21T04:05:05;24.27;;;22.07;;
2029;SDS011;1020;48.854;8.830;2023-05-21T04:07:32;26.80;;;24.20;;
2029;SDS011;1020;48.854;8.830;2023-05-21T04:10:02;25.50;;;23.13;;
2029;SDS011;1020;48.854;8.830;2023-05-21T04:12:29;27.27;;;24.60;;
2029;SDS011;1020;48.854;8.830;2023-05-21T04:14:57;25.73;;;23.40;;
2029;SDS011;1020;48.854;8.830;2023-05-21T04:17:26;24.40;;;21.97;;
2029;SDS011;1020;48.854;8.830;2023-05-21T04:19:53;23.03;;;20.83;;
2029;SDS011;1020;48.854;8.830;2023-05-21T04:22:20;21.33;;;19.30;;
2029;SDS011;1020;48.854;8.830;2023-05-21T04:24:47;22.70;;;20.63;;
2029;SDS011;1020;48.854;8.830;2023-05-21T04:27:14;26.57;;;24.10;;
2029;SDS011;1020;48.854;8.830;2023-05-21T04:29:41;24.70;;;22.20;;
2029;SDS011;1020;48.854;8.830;2023-05-21T04:32:09;23.70;;;21.13;;
2029;SDS011;1020;48.854;8.830;2023-05-21T04:34:39;23.03;;;20.93;;
2029;SDS011;1020;48.854;8.830;2023-05-21T04:37:05;21.47;;;19.47;;
2029;SDS011;1020;48.854;8.830;2023-05-21T04:39:33;21.50;;;19.50;;
2029;SDS011;1020;48.854;8.830;2023-05-21T04:42:00;20.80;;;18.93;;
2029;SDS011;1020;48.854;8.830;2023-05-21T04:44:27;21.40;;;19.60;;
2029;SDS011;1020;48.854;8.830;2023-05-21T04:46:54;23.43;;;21.33;;
2029;SDS011;1020;48.854;8.830;2023-05-21T04:49:22;22.67;;;20.60;;
2029;SDS011;1020;48.854;8.830;2023-05-21T04:51:49;21.63;;;19.77;;
2029;SDS011;1020;48.854;8.830;2023-05-21T04:54:16;24.10;;;21.90;;
2029;SDS011;1020;48.854;8.830;2023-05-21T04:56:43;23.00;;;20.90;;
2029;SDS011;1020;48.854;8.830;2023-05-21T04:59:11;25.50;;;22.90;;
2029;SDS011;1020;48.854;8.830;2023-05-21T05:01:38;24.50;;;22.10;;
2029;SDS011;1020;48.854;8.830;2023-05-21T05:04:05;24.03;;;21.93;;
2029;SDS011;1020;48.854;8.830;2023-05-21T05:06:33;21.77;;;19.87;;
2029;SDS011;1020;48.854;8.830;2023-05-21T05:09:00;20.47;;;18.50;;
2029;SDS011;1020;48.854;8.830;2023-05-21T05:11:28;21.10;;;19.20;;
2029;SDS011;1020;48.854;8.830;2023-05-21T05:13:55;21.27;;;19.20;;
2029;SDS011;1020;48.854;8.830;2023-05-21T05:16:22;20.63;;;18.87;;
2029;SDS011;1020;48.854;8.830;2023-05-21T05:18:49;22.10;;;20.00;;
2029;SDS011;1020;48.854;8.830;2023-05-21T05:21:17;20.57;;;18.73;;
2029;SDS011;1020;48.854;8.830;2023-05-21T05:23:45;21.00;;;19.03;;
2029;SDS011;1020;48.854;8.830;2023-05-21T05:26:12;21.53;;;19.53;;
2029;SDS011;1020;48.854;8.830;2023-05-21T05:28:39;22.07;;;19.80;;
2029;SDS011;1020;48.854;8.830;2023-05-21T05:31:05;21.90;;;19.93;;
2029;SDS011;1020;48.854;8.830;2023-05-21T05:33:32;22.83;;;20.73;;
2029;SDS011;1020;48.854;8.830;2023-05-21T05:35:59;23.20;;;21.00;;
2029;SDS011;1020;48.854;8.830;2023-05-21T05:38:25;19.83;;;18.10;;
2029;SDS011;1020;48.854;8.830;2023-05-21T05:40:54;20.70;;;18.90;;
2029;SDS011;1020;48.854;8.830;2023-05-21T05:43:20;22.73;;;20.70;;
2029;SDS011;1020;48.854;8.830;2023-05-21T05:45:47;22.53;;;20.43;;
2029;SDS011;1020;48.854;8.830;2023-05-21T05:48:14;20.43;;;18.37;;
2029;SDS011;1020;48.854;8.830;2023-05-21T05:50:41;21.80;;;19.80;;
2029;SDS011;1020;48.854;8.830;2023-05-21T05:53:08;20.30;;;18.50;;
2029;SDS011;1020;48.854;8.830;2023-05-21T05:55:37;23.10;;;21.10;;
2029;SDS011;1020;48.854;8.830;2023-05-21T05:58:05;21.87;;;19.67;;
2029;SDS011;1020;48.854;8.830;2023-05-21T06:00:32;21.97;;;20.07;;
2029;SDS011;1020;48.854;8.830;2023-05-21T06:02:59;21.00;;;19.13;;
2029;SDS011;1020;48.854;8.830;2023-05-21T06:05:25;20.57;;;18.67;;
2029;SDS011;1020;48.854;8.830;2023-05-21T06:07:52;19.83;;;17.83;;
2029;SDS011;1020;48.854;8.830;2023-05-21T06:10:19;19.40;;;17.60;;
2029;SDS011;1020;48.854;8.830;2023-05-21T06:12:46;19.70;;;17.73;;
2029;SDS011;1020;48.854;8.830;2023-05-21T06:15:14;16.57;;;15.17;;
2029;SDS011;1020;48.854;8.830;2023-05-21T06:17:43;17.57;;;16.07;;
2029;SDS011;1020;48.854;8.830;2023-05-21T06:20:10;15.57;;;14.10;;
2029;SDS011;1020;48.854;8.830;2023-05-21T06:22:37;16.10;;;14.83;;
2029;SDS011;1020;48.854;8.830;2023-05-21T06:25:04;15.67;;;14.47;;
2029;SDS011;1020;48.854;8.830;2023-05-21T06:27:32;15.63;;;14.33;;
2029;SDS011;1020;48.854;8.830;2023-05-21T06:29:59;15.37;;;14.07;;
2029;SDS011;1020;48.854;8.830;2023-05-21T06:32:27;16.90;;;15.50;;
2029;SDS011;1020;48.854;8.830;2023-05-21T06:34:53;15.40;;;13.70;;
2029;SDS011;1020;48.854;8.830;2023-05-21T06:37:20;15.17;;;13.90;;
2029;SDS011;1020;48.854;8.830;2023-05-21T06:39:47;15.10;;;13.70;;
2029;SDS011;1020;48.854;8.830;2023-05-21T06:42:14;13.73;;;12.60;;
2029;SDS011;1020;48.854;8.830;2023-05-21T06:44:41;15.30;;;13.70;;
2029;SDS011;1020;48.854;8.830;2023-05-21T06:47:07;15.00;;;13.50;;
2029;SDS011;1020;48.854;8.830;2023-05-21T06:49:36;12.87;;;11.87;;
2029;SDS011;1020;48.854;8.830;2023-05-21T06:52:02;12.00;;;11.07;;
2029;SDS011;1020;48.854;8.830;2023-05-21T06:54:30;12.77;;;11.70;;
2029;SDS011;1020;48.854;8.830;2023-05-21T06:56:57;13.17;;;12.17;;
2029;SDS011;1020;48.854;8.830;2023-05-21T06:59:24;12.67;;;11.70;;
2029;SDS011;1020;48.854;8.830;2023-05-21T07:01:50;11.43;;;10.60;;
2029;SDS011;1020;48.854;8.830;2023-05-21T07:04:17;13.23;;;12.03;;
2029;SDS011;1020;48.854;8.830;2023-05-21T07:06:45;12.97;;;11.87;;
2029;SDS011;1020;48.854;8.830;2023-05-21T07:09:12;13.70;;;12.50;;
2029;SDS011;1020;48.854;8.830;2023-05-21T07:11:39;11.10;;;10.10;;
2029;SDS011;1020;48.854;8.830;2023-05-21T07:14:07;12.93;;;11.83;;
2029;SDS011;1020;48.854;8.830;2023-05-21T07:16:34;13.07;;;11.97;;
2029;SDS011;1020;48.854;8.830;2023-05-21T07:19:01;11.17;;;10.27;;
2029;SDS011;1020;48.854;8.830;2023-05-21T07:21:27;12.10;;;11.13;;
2029;SDS011;1020;48.854;8.830;2023-05-21T07:23:56;11.60;;;10.70;;
2029;SDS011;1020;48.854;8.830;2023-05-21T07:26:23;11.13;;;10.37;;
2029;SDS011;1020;48.854;8.830;2023-05-21T07:28:50;9.73;;;8.93;;
2029;SDS011;1020;48.854;8.830;2023-05-21T07:31:17;8.97;;;8.37;;
2029;SDS011;1020;48.854;8.830;2023-05-21T07:33:43;9.70;;;9.00;;
2029;SDS011;1020;48.854;8.830;2023-05-21T07:36:10;10.80;;;9.90;;
2029;SDS011;1020;48.854;8.830;2023-05-21T07:38:37;10.07;;;9.20;;
2029;SDS011;1020;48.854;8.830;2023-05-21T07:41:05;9.67;;;8.97;;
2029;SDS011;1020;48.854;8.830;2023-05-21T07:43:32;10.03;;;9.33;;
2029;SDS011;1020;48.854;8.830;2023-05-21T07:45:59;10.33;;;9.60;;
2029;SDS011;1020;48.854;8.830;2023-05-21T07:48:25;11.80;;;10.90;;
2029;SDS011;1020;48.854;8.830;2023-05-21T07:50:52;10.00;;;9.23;;
2029;SDS011;1020;48.854;8.830;2023-05-21T07:53:20;9.67;;;8.90;;
2029;SDS011;1020;48.854;8.830;2023-05-21T07:55:47;11.53;;;10.67;;
2029;SDS011;1020;48.854;8.830;2023-05-21T07:58:15;10.10;;;9.40;;
2029;SDS011;1020;48.854;8.830;2023-05-21T08:00:44;9.17;;;8.57;;
2029;SDS011;1020;48.854;8.830;2023-05-21T08:03:13;9.80;;;9.10;;
2029;SDS011;1020;48.854;8.830;2023-05-21T08:05:41;9.77;;;8.97;;
2029;SDS011;1020;48.854;8.830;2023-05-21T08:08:09;11.33;;;10.33;;
2029;SDS011;1020;48.854;8.830;2023-05-21T08:10:36;10.43;;;9.73;;
2029;SDS011;1020;48.854;8.830;2023-05-21T08:13:03;9.20;;;8.50;;
2029;SDS011;1020;48.854;8.830;2023-05-21T08:15:31;8.70;;;8.00;;
2029;SDS011;1020;48.854;8.830;2023-05-21T08:17:58;9.33;;;8.53;;
2029;SDS011;1020;48.854;8.830;2023-05-21T08:20:25;9.97;;;9.27;;
2029;SDS011;1020;48.854;8.830;2023-05-21T08:22:53;9.47;;;8.80;;
2029;SDS011;1020;48.854;8.830;2023-05-21T08:25:19;9.57;;;8.80;;
2029;SDS011;1020;48.854;8.830;2023-05-21T08:27:46;9.93;;;9.20;;
2029;SDS011;1020;48.854;8.830;2023-05-21T08:30:13;11.17;;;10.17;;
2029;SDS011;1020;48.854;8.830;2023-05-21T08:32:41;9.07;;;8.47;;
2029;SDS011;1020;48.854;8.830;2023-05-21T08:35:08;9.70;;;8.97;;
2029;SDS011;1020;48.854;8.830;2023-05-21T08:37:35;10.30;;;9.70;;
2029;SDS011;1020;48.854;8.830;2023-05-21T08:40:02;10.17;;;9.47;;
2029;SDS011;1020;48.854;8.830;2023-05-21T08:42:33;9.57;;;8.87;;
2029;SDS011;1020;48.854;8.830;2023-05-21T08:45:10;9.37;;;8.77;;
2029;SDS011;1020;48.854;8.830;2023-05-21T08:47:39;10.40;;;9.70;;
2029;SDS011;1020;48.854;8.830;2023-05-21T08:50:10;10.20;;;9.37;;
2029;SDS011;1020;48.854;8.830;2023-05-21T08:52:38;9.03;;;8.33;;
2029;SDS011;1020;48.854;8.830;2023-05-21T08:55:05;10.20;;;9.50;;
2029;SDS011;1020;48.854;8.830;2023-05-21T08:57:33;10.03;;;9.33;;
2029;SDS011;1020;48.854;8.830;2023-05-21T09:00:00;9.80;;;9.00;;
2029;SDS011;1020;48.854;8.830;2023-05-21T09:02:29;11.53;;;10.63;;
2029;SDS011;1020;48.854;8.830;2023-05-21T09:05:01;11.90;;;10.80;;
2029;SDS011;1020;48.854;8.830;2023-05-21T09:07:29;10.53;;;9.70;;
2029;SDS011;1020;48.854;8.830;2023-05-21T09:10:01;10.40;;;9.60;;
2029;SDS011;1020;48.854;8.830;2023-05-21T09:12:30;11.10;;;10.20;;
2029;SDS011;1020;48.854;8.830;2023-05-21T09:14:57;11.07;;;10.27;;
2029;SDS011;1020;48.854;8.830;2023-05-21T09:17:25;10.70;;;9.80;;
2029;SDS011;1020;48.854;8.830;2023-05-21T09:20:04;9.90;;;9.10;;
2029;SDS011;1020;48.854;8.830;2023-05-21T09:22:37;11.27;;;10.30;;
2029;SDS011;1020;48.854;8.830;2023-05-21T09:25:06;10.97;;;10.27;;
2029;SDS011;1020;48.854;8.830;2023-05-21T09:27:34;9.77;;;9.07;;
2029;SDS011;1020;48.854;8.830;2023-05-21T09:30:02;11.13;;;10.23;;
2029;SDS011;1020;48.854;8.830;2023-05-21T09:32:30;9.70;;;8.90;;
2029;SDS011;1020;48.854;8.830;2023-05-21T09:34:57;10.27;;;9.40;;
2029;SDS011;1020;48.854;8.830;2023-05-21T09:37:36;8.63;;;8.03;;
2029;SDS011;1020;48.854;8.830;2023-05-21T09:40:13;10.80;;;9.70;;
2029;SDS011;1020;48.854;8.830;2023-05-21T09:42:42;9.10;;;8.50;;
2029;SDS011;1020;48.854;8.830;2023-05-21T09:45:11;9.83;;;9.13;;
2029;SDS011;1020;48.854;8.830;2023-05-21T09:47:43;9.63;;;8.93;;
2029;SDS011;1020;48.854;8.830;2023-05-21T09:50:12;9.40;;;8.70;;
2029;SDS011;1020;48.854;8.830;2023-05-21T09:52:42;8.57;;;7.97;;
2029;SDS011;1020;48.854;8.830;2023-05-21T09:55:10;9.20;;;8.50;;
2029;SDS011;1020;48.854;8.830;2023-05-21T09:57:40;8.90;;;8.17;;
2029;SDS011;1020;48.854;8.830;2023-05-21T10:00:08;9.20;;;8.50;;
2029;SDS011;1020;48.854;8.830;2023-05-21T10:02:43;8.87;;;8.13;;
2029;SDS011;1020;48.854;8.830;2023-05-21T10:05:12;9.83;;;8.90;;
2029;SDS011;1020;48.854;8.830;2023-05-21T10:07:40;9.43;;;8.73;;
2029;SDS011;1020;48.854;8.830;2023-05-21T10:10:09;10.20;;;9.50;;
2029;SDS011;1020;48.854;8.830;2023-05-21T10:12:39;10.20;;;9.30;;
2029;SDS011;1020;48.854;8.830;2023-05-21T10:15:11;9.20;;;8.50;;
2029;SDS011;1020;48.854;8.830;2023-05-21T10:17:39;9.77;;;8.97;;
2029;SDS011;1020;48.854;8.830;2023-05-21T10:20:09;10.60;;;9.80;;
2029;SDS011;1020;48.854;8.830;2023-05-21T10:22:37;10.60;;;9.80;;
2029;SDS011;1020;48.854;8.830;2023-05-21T10:25:05;9.90;;;9.20;;
2029;SDS011;1020;48.854;8.830;2023-05-21T10:27:33;11.70;;;10.80;;
2029;SDS011;1020;48.854;8.830;2023-05-21T10:30:01;10.13;;;9.37;;
2029;SDS011;1020;48.854;8.830;2023-05-21T10:32:29;9.83;;;9.03;;
2029;SDS011;1020;48.854;8.830;2023-05-21T10:34:57;8.93;;;8.33;;
2029;SDS011;1020;48.854;8.830;2023-05-21T10:37:25;8.70;;;8.10;;
2029;SDS011;1020;48.854;8.830;2023-05-21T10:39:54;9.83;;;9.13;;
2029;SDS011;1020;48.854;8.830;2023-05-21T10:42:24;9.83;;;9.03;;
2029;SDS011;1020;48.854;8.830;2023-05-21T10:45:13;9.43;;;8.73;;
2029;SDS011;1020;48.854;8.830;2023-05-21T10:47:52;8.93;;;8.33;;
2029;SDS011;1020;48.854;8.830;2023-05-21T10:50:36;10.07;;;9.17;;
2029;SDS011;1020;48.854;8.830;2023-05-21T10:53:15;8.43;;;7.80;;
2029;SDS011;1020;48.854;8.830;2023-05-21T10:55:51;8.70;;;8.20;;
2029;SDS011;1020;48.854;8.830;2023-05-21T10:58:44;9.90;;;9.20;;
2029;SDS011;1020;48.854;8.830;2023-05-21T11:01:26;8.60;;;8.00;;
2029;SDS011;1020;48.854;8.830;2023-05-21T11:03:57;8.40;;;7.83;;
2029;SDS011;1020;48.854;8.830;2023-05-21T11:06:25;9.17;;;8.53;;
2029;SDS011;1020;48.854;8.830;2023-05-21T11:08:52;8.90;;;8.20;;
2029;SDS011;1020;48.854;8.830;2023-05-21T11:14:27;7.97;;;7.47;;
2029;SDS011;1020;48.854;8.830;2023-05-21T11:17:00;9.63;;;8.93;;
2029;SDS011;1020;48.854;8.830;2023-05-21T11:19:34;10.27;;;9.57;;
2029;SDS011;1020;48.854;8.830;2023-05-21T11:22:05;9.37;;;8.67;;
2029;SDS011;1020;48.854;8.830;2023-05-21T11:24:37;10.70;;;9.83;;
2029;SDS011;1020;48.854;8.830;2023-05-21T11:27:07;8.73;;;8.03;;
2029;SDS011;1020;48.854;8.830;2023-05-21T11:29:40;7.67;;;7.17;;
2029;SDS011;1020;48.854;8.830;2023-05-21T11:32:09;8.97;;;8.27;;
2029;SDS011;1020;48.854;8.830;2023-05-21T11:34:38;8.70;;;8.10;;
2029;SDS011;1020;48.854;8.830;2023-05-21T11:37:22;7.57;;;7.07;;
2029;SDS011;1020;48.854;8.830;2023-05-21T11:39:54;7.77;;;7.27;;
2029;SDS011;1020;48.854;8.830;2023-05-21T11:42:27;7.70;;;7.20;;
2029;SDS011;1020;48.854;8.830;2023-05-21T11:44:58;7.20;;;6.70;;
2029;SDS011;1020;48.854;8.830;2023-05-21T11:47:27;7.10;;;6.70;;
2029;SDS011;1020;48.854;8.830;2023-05-21T11:49:57;6.80;;;6.30;;
2029;SDS011;1020;48.854;8.830;2023-05-21T11:52:24;6.40;;;5.90;;
2029;SDS011;1020;48.854;8.830;2023-05-21T11:54:53;6.53;;;6.13;;
2029;SDS011;1020;48.854;8.830;2023-05-21T11:57:22;6.53;;;6.13;;
2029;SDS011;1020;48.854;8.830;2023-05-21T11:59:54;7.07;;;6.67;;
2029;SDS011;1020;48.854;8.830;2023-05-21T12:02:23;6.90;;;6.50;;
2029;SDS011;1020;48.854;8.830;2023-05-21T12:04:52;7.90;;;7.30;;
2029;SDS011;1020;48.854;8.830;2023-05-21T12:07:19;6.60;;;6.20;;
2029;SDS011;1020;48.854;8.830;2023-05-21T12:09:47;7.10;;;6.70;;
2029;SDS011;1020;48.854;8.830;2023-05-21T12:12:15;6.97;;;6.57;;
2029;SDS011;1020;48.854;8.830;2023-05-21T12:14:45;6.40;;;6.00;;
2029;SDS011;1020;48.854;8.830;2023-05-21T12:17:15;7.17;;;6.57;;
2029;SDS011;1020;48.854;8.830;2023-05-21T12:19:44;6.40;;;6.00;;
2029;SDS011;1020;48.854;8.830;2023-05-21T12:22:11;6.43;;;6.03;;
2029;SDS011;1020;48.854;8.830;2023-05-21T12:24:39;6.63;;;6.23;;
2029;SDS011;1020;48.854;8.830;2023-05-21T12:27:08;5.53;;;5.13;;
2029;SDS011;1020;48.854;8.830;2023-05-21T12:29:37;7.17;;;6.60;;
2029;SDS011;1020;48.854;8.830;2023-05-21T12:32:07;7.00;;;6.50;;
2029;SDS011;1020;48.854;8.830;2023-05-21T12:34:39;6.53;;;5.93;;
2029;SDS011;1020;48.854;8.830;2023-05-21T12:37:09;7.20;;;6.70;;
2029;SDS011;1020;48.854;8.830;2023-05-21T12:39:37;6.70;;;6.20;;
2029;SDS011;1020;48.854;8.830;2023-05-21T12:42:05;6.83;;;6.33;;
2029;SDS011;1020;48.854;8.830;2023-05-21T12:44:32;6.03;;;5.60;;
2029;SDS011;1020;48.854;8.830;2023-05-21T12:46:59;7.33;;;6.93;;
2029;SDS011;1020;48.854;8.830;2023-05-21T12:49:29;7.07;;;6.47;;
2029;SDS011;1020;48.854;8.830;2023-05-21T12:52:00;7.13;;;6.63;;
2029;SDS011;1020;48.854;8.830;2023-05-21T12:54:29;7.33;;;6.83;;
2029;SDS011;1020;48.854;8.830;2023-05-21T12:56:56;6.17;;;5.80;;
2029;SDS011;1020;48.854;8.830;2023-05-21T12:59:23;6.17;;;5.77;;
2029;SDS011;1020;48.854;8.830;2023-05-21T13:01:50;6.43;;;6.03;;
2029;SDS011;1020;48.854;8.830;2023-05-21T13:04:18;6.70;;;6.20;;
2029;SDS011;1020;48.854;8.830;2023-05-21T13:06:45;6.20;;;5.70;;
2029;SDS011;1020;48.854;8.830;2023-05-21T13:09:13;7.53;;;6.93;;
2029;SDS011;1020;48.854;8.830;2023-05-21T13:11:40;6.47;;;6.00;;
2029;SDS011;1020;48.854;8.830;2023-05-21T13:14:07;5.97;;;5.57;;
2029;SDS011;1020;48.854;8.830;2023-05-21T13:16:34;6.20;;;5.80;;
2029;SDS011;1020;48.854;8.830;2023-05-21T13:19:01;6.10;;;5.80;;
2029;SDS011;1020;48.854;8.830;2023-05-21T13:21:27;6.93;;;6.53;;
2029;SDS011;1020;48.854;8.830;2023-05-21T13:23:55;6.70;;;6.20;;
2029;SDS011;1020;48.854;8.830;2023-05-21T13:26:23;6.30;;;5.80;;
2029;SDS011;1020;48.854;8.830;2023-05-21T13:28:50;6.23;;;5.83;;
2029;SDS011;1020;48.854;8.830;2023-05-21T13:31:16;5.97;;;5.57;;
2029;SDS011;1020;48.854;8.830;2023-05-21T13:33:43;6.43;;;5.83;;
2029;SDS011;1020;48.854;8.830;2023-05-21T13:36:10;6.27;;;5.87;;
2029;SDS011;1020;48.854;8.830;2023-05-21T13:38:37;6.70;;;6.20;;
2029;SDS011;1020;48.854;8.830;2023-05-21T13:41:03;6.50;;;6.10;;
2029;SDS011;1020;48.854;8.830;2023-05-21T13:43:32;5.57;;;5.17;;
2029;SDS011;1020;48.854;8.830;2023-05-21T13:45:58;5.60;;;5.20;;
2029;SDS011;1020;48.854;8.830;2023-05-21T13:48:25;5.80;;;5.40;;
2029;SDS011;1020;48.854;8.830;2023-05-21T13:50:52;5.03;;;4.60;;
2029;SDS011;1020;48.854;8.830;2023-05-21T13:53:20;6.10;;;5.70;;
2029;SDS011;1020;48.854;8.830;2023-05-21T13:55:47;6.07;;;5.70;;
2029;SDS011;1020;48.854;8.830;2023-05-21T14:00:47;5.90;;;5.50;;
2029;SDS011;1020;48.854;8.830;2023-05-21T14:03:14;6.73;;;6.23;;
2029;SDS011;1020;48.854;8.830;2023-05-21T14:05:40;5.90;;;5.50;;
2029;SDS011;1020;48.854;8.830;2023-05-21T14:10:44;6.30;;;5.80;;
2029;SDS011;1020;48.854;8.830;2023-05-21T14:13:12;5.80;;;5.40;;
2029;SDS011;1020;48.854;8.830;2023-05-21T14:15:39;5.97;;;5.57;;
2029;SDS011;1020;48.854;8.830;2023-05-21T14:18:07;5.90;;;5.50;;
2029;SDS011;1020;48.854;8.830;2023-05-21T14:20:36;6.60;;;6.10;;
2029;SDS011;1020;48.854;8.830;2023-05-21T14:23:03;5.60;;;5.20;;
2029;SDS011;1020;48.854;8.830;2023-05-21T14:25:30;7.73;;;7.23;;
2029;SDS011;1020;48.854;8.830;2023-05-21T14:27:57;7.53;;;7.03;;
2029;SDS011;1020;48.854;8.830;2023-05-21T14:30:24;7.17;;;6.47;;
2029;SDS011;1020;48.854;8.830;2023-05-21T14:32:50;6.50;;;6.00;;
2029;SDS011;1020;48.854;8.830;2023-05-21T14:35:18;6.57;;;6.03;;
2029;SDS011;1020;48.854;8.830;2023-05-21T14:37:45;5.93;;;5.53;;
2029;SDS011;1020;48.854;8.830;2023-05-21T14:40:12;6.13;;;5.73;;
2029;SDS011;1020;48.854;8.830;2023-05-21T14:42:39;6.30;;;5.90;;
2029;SDS011;1020;48.854;8.830;2023-05-21T14:45:07;6.20;;;5.80;;
2029;SDS011;1020;48.854;8.830;2023-05-21T14:47:34;6.17;;;5.87;;
2029;SDS011;1020;48.854;8.830;2023-05-21T14:50:00;6.70;;;6.20;;
2029;SDS011;1020;48.854;8.830;2023-05-21T14:52:29;7.63;;;7.13;;
2029;SDS011;1020;48.854;8.830;2023-05-21T14:54:55;7.53;;;7.03;;
2029;SDS011;1020;48.854;8.830;2023-05-21T14:57:22;6.63;;;6.03;;
2029;SDS011;1020;48.854;8.830;2023-05-21T14:59:49;6.20;;;5.80;;
2029;SDS011;1020;48.854;8.830;2023-05-21T15:02:16;5.80;;;5.50;;
2029;SDS011;1020;48.854;8.830;2023-05-21T15:04:43;6.37;;;5.87;;
2029;SDS011;1020;48.854;8.830;2023-05-21T15:07:09;7.00;;;6.40;;
2029;SDS011;1020;48.854;8.830;2023-05-21T15:09:38;6.30;;;5.90;;
2029;SDS011;1020;48.854;8.830;2023-05-21T15:12:04;6.50;;;6.10;;
2029;SDS011;1020;48.854;8.830;2023-05-21T15:14:31;6.70;;;6.20;;
2029;SDS011;1020;48.854;8.830;2023-05-21T15:16:58;6.33;;;5.80;;